Airfield :







YOU CAN JOIN US ON...

 
LOGIN :

Register | Disclaimer

   EN    FR    IT 

 









Legend :    VFR   Marginal VFR   IFR   Intensive IFR   Very Intensive IFR
Visi :
Ceiling :
>= 8 km
>= 3000ft
5 to 8 km
1000 to 3000 ft
1500m to 5 km
500 to 1000 ft
800 to 1500m
200 to 500 ft
< 800m
< 200 ft
Symbols :   Thunderstorms  Fog  Heavy snow  Heavy precipitations  Wind > 20 kt






- Airport Elevation : 234 ft
- IATA code : PBG


KPBG - Plattsburgh International

CURRENT METAR :
  • 221253Z AUTO VRB05KT 10SM SCT021 OVC080 14/11 A2972 RMK AO2 SLP064 T01390106

EXPIRED METARs :
  • 221153Z AUTO 00000KT 10SM SCT042 BKN085 OVC100 13/12 A2966 RMK AO2 SLP044 60022 70049 T01330122 10139 20122 53016
  • 221053Z AUTO 17004KT 10SM BKN075 13/12 A2963 RMK AO2 RAE24 SLP035 P0002 T01280122

TAF KPBG
Valid from the 22 at 12:00 until the 23 at 12:00 UTC


221135Z 2212/2312 22006KT P6SM BKN070
FM221300 28010G17KT P6SM SCT070
FM221400 30008KT P6SM BKN035
FM221900 31005KT P6SM OVC035
FM230100 00000KT P6SM OVC060
KZBW FIR / North America



MET'MAP, your aeronautical weather chart ! - Copyright ORBIFLY December 2007 - Disclaimer

ORBIFLY MET'MAP TEAM :

Programming & Development : Alexandra Zaïnal
Concept & original design : Baudouin d'Aumeries
Assistance for programming : Marc-Olivier Méhu
Technical & hardware support : Manuel Goepfert

Contact : metmap@orbifly.com




SOURCES & CREDITS :

   NOAA